sensor_id;sensor_type;location;lat;lon;timestamp;pressure;altitude;pressure_sealevel;temperature;humidity
73341;BME280;61578;52.002;5.468;2024-03-02T00:00:12;99713.72;;;11.58;57.95
73341;BME280;61578;52.002;5.468;2024-03-02T00:00:43;99722.81;;;11.65;58.06
73341;BME280;61578;52.002;5.468;2024-03-02T00:01:14;99727.03;;;11.68;58.28
73341;BME280;61578;52.002;5.468;2024-03-02T00:01:47;99719.78;;;11.70;57.73
73341;BME280;61578;52.002;5.468;2024-03-02T00:02:18;99723.53;;;11.67;57.80
73341;BME280;61578;52.002;5.468;2024-03-02T00:02:50;99733.09;;;11.70;58.12
73341;BME280;61578;52.002;5.468;2024-03-02T00:03:21;99730.41;;;11.70;58.09
73341;BME280;61578;52.002;5.468;2024-03-02T00:03:52;99730.41;;;11.70;57.97
73341;BME280;61578;52.002;5.468;2024-03-02T00:04:24;99719.16;;;11.57;57.99
73341;BME280;61578;52.002;5.468;2024-03-02T00:04:57;99726.06;;;11.69;57.74
73341;BME280;61578;52.002;5.468;2024-03-02T00:05:31;99734.91;;;11.69;57.78
73341;BME280;61578;52.002;5.468;2024-03-02T00:06:04;99730.13;;;11.73;57.84
73341;BME280;61578;52.002;5.468;2024-03-02T00:06:35;99731.81;;;11.74;57.90
73341;BME280;61578;52.002;5.468;2024-03-02T00:07:14;99722.91;;;11.75;57.62
73341;BME280;61578;52.002;5.468;2024-03-02T00:08:30;99734.13;;;11.78;57.83
73341;BME280;61578;52.002;5.468;2024-03-02T00:09:01;99740.41;;;11.77;57.38
73341;BME280;61578;52.002;5.468;2024-03-02T00:09:33;99734.97;;;11.79;57.60
73341;BME280;61578;52.002;5.468;2024-03-02T00:10:08;99725.19;;;11.79;57.38
73341;BME280;61578;52.002;5.468;2024-03-02T00:10:43;99734.69;;;11.82;57.48
73341;BME280;61578;52.002;5.468;2024-03-02T00:11:14;99734.69;;;11.82;57.61
73341;BME280;61578;52.002;5.468;2024-03-02T00:11:46;99733.84;;;11.82;57.73
73341;BME280;61578;52.002;5.468;2024-03-02T00:12:17;99739.31;;;11.80;58.05
73341;BME280;61578;52.002;5.468;2024-03-02T00:12:48;99734.25;;;11.77;58.09
73341;BME280;61578;52.002;5.468;2024-03-02T00:13:22;99739.31;;;11.80;57.61
73341;BME280;61578;52.002;5.468;2024-03-02T00:13:53;99743.63;;;11.81;57.40
73341;BME280;61578;52.002;5.468;2024-03-02T00:14:24;99745.63;;;11.79;57.57
73341;BME280;61578;52.002;5.468;2024-03-02T00:14:55;99731.09;;;11.72;57.76
73341;BME280;61578;52.002;5.468;2024-03-02T00:15:46;99745.47;;;11.81;57.80
73341;BME280;61578;52.002;5.468;2024-03-02T00:16:18;99746.28;;;11.81;57.84
73341;BME280;61578;52.002;5.468;2024-03-02T00:16:51;99756.94;;;11.81;57.96
73341;BME280;61578;52.002;5.468;2024-03-02T00:17:25;99751.63;;;11.81;58.30
73341;BME280;61578;52.002;5.468;2024-03-02T00:17:56;99749.97;;;11.80;57.95
73341;BME280;61578;52.002;5.468;2024-03-02T00:18:38;99757.09;;;11.79;57.90
73341;BME280;61578;52.002;5.468;2024-03-02T00:19:09;99755.28;;;11.80;58.06
73341;BME280;61578;52.002;5.468;2024-03-02T00:19:40;99746.94;;;11.73;58.31
73341;BME280;61578;52.002;5.468;2024-03-02T00:20:18;99756.72;;;11.73;57.67
73341;BME280;61578;52.002;5.468;2024-03-02T00:20:54;99761.69;;;11.77;58.19
73341;BME280;61578;52.002;5.468;2024-03-02T00:21:31;99763.72;;;11.74;58.31
73341;BME280;61578;52.002;5.468;2024-03-02T00:22:03;99769.53;;;11.79;58.22
73341;BME280;61578;52.002;5.468;2024-03-02T00:22:35;99774.28;;;11.75;58.21
73341;BME280;61578;52.002;5.468;2024-03-02T00:23:14;99772.34;;;11.77;58.07
73341;BME280;61578;52.002;5.468;2024-03-02T00:23:48;99774.38;;;11.74;58.43
73341;BME280;61578;52.002;5.468;2024-03-02T00:24:32;99782.59;;;11.71;58.91
73341;BME280;61578;52.002;5.468;2024-03-02T00:25:08;99776.59;;;11.69;58.74
73341;BME280;61578;52.002;5.468;2024-03-02T00:25:48;99779.94;;;11.71;58.86
73341;BME280;61578;52.002;5.468;2024-03-02T00:26:29;99770.69;;;11.65;59.17
73341;BME280;61578;52.002;5.468;2024-03-02T00:27:01;99799.56;;;11.70;59.12
73341;BME280;61578;52.002;5.468;2024-03-02T00:27:34;99789.88;;;11.69;58.75
73341;BME280;61578;52.002;5.468;2024-03-02T00:28:05;99770.81;;;11.64;58.96
73341;BME280;61578;52.002;5.468;2024-03-02T00:28:44;99785.41;;;11.69;59.16
73341;BME280;61578;52.002;5.468;2024-03-02T00:29:17;99786.25;;;11.70;59.43
73341;BME280;61578;52.002;5.468;2024-03-02T00:29:50;99802.06;;;11.71;59.07
73341;BME280;61578;52.002;5.468;2024-03-02T00:31:39;99791.84;;;11.67;59.43
73341;BME280;61578;52.002;5.468;2024-03-02T00:32:13;99783.13;;;11.65;59.48
73341;BME280;61578;52.002;5.468;2024-03-02T00:32:47;99792.94;;;11.64;59.46
73341;BME280;61578;52.002;5.468;2024-03-02T00:33:19;99792.22;;;11.62;59.45
73341;BME280;61578;52.002;5.468;2024-03-02T00:33:51;99803.25;;;11.58;59.27
73341;BME280;61578;52.002;5.468;2024-03-02T00:34:22;99799.34;;;11.62;59.46
73341;BME280;61578;52.002;5.468;2024-03-02T00:34:53;99786.34;;;11.59;59.58
73341;BME280;61578;52.002;5.468;2024-03-02T00:35:24;99792.34;;;11.61;59.70
73341;BME280;61578;52.002;5.468;2024-03-02T00:35:55;99804.78;;;11.60;59.16
73341;BME280;61578;52.002;5.468;2024-03-02T00:36:29;99811.66;;;11.63;59.41
73341;BME280;61578;52.002;5.468;2024-03-02T00:37:01;99814.19;;;11.64;59.55
73341;BME280;61578;52.002;5.468;2024-03-02T00:37:32;99808.03;;;11.64;59.42
73341;BME280;61578;52.002;5.468;2024-03-02T00:38:05;99812.75;;;11.60;60.18
73341;BME280;61578;52.002;5.468;2024-03-02T00:39:19;99816.00;;;11.64;59.65
73341;BME280;61578;52.002;5.468;2024-03-02T00:39:50;99837.28;;;11.64;59.93
73341;BME280;61578;52.002;5.468;2024-03-02T00:40:21;99828.47;;;11.63;59.70
73341;BME280;61578;52.002;5.468;2024-03-02T00:40:51;99832.94;;;11.63;59.91
73341;BME280;61578;52.002;5.468;2024-03-02T00:41:32;99856.00;;;11.62;59.57
73341;BME280;61578;52.002;5.468;2024-03-02T00:42:03;99845.50;;;11.61;60.26
73341;BME280;61578;52.002;5.468;2024-03-02T00:42:35;99849.84;;;11.62;59.99
73341;BME280;61578;52.002;5.468;2024-03-02T00:43:59;99858.22;;;11.57;60.58
73341;BME280;61578;52.002;5.468;2024-03-02T00:44:33;99855.16;;;11.62;60.10
73341;BME280;61578;52.002;5.468;2024-03-02T00:45:09;99843.63;;;11.52;60.37
73341;BME280;61578;52.002;5.468;2024-03-02T00:45:40;99861.75;;;11.58;60.19
73341;BME280;61578;52.002;5.468;2024-03-02T00:46:12;99803.38;;;11.35;60.41
73341;BME280;61578;52.002;5.468;2024-03-02T00:46:44;99851.94;;;11.58;60.49
73341;BME280;61578;52.002;5.468;2024-03-02T00:47:14;99842.66;;;11.53;60.99
73341;BME280;61578;52.002;5.468;2024-03-02T00:47:45;99848.81;;;11.53;61.19
73341;BME280;61578;52.002;5.468;2024-03-02T00:48:16;99821.25;;;11.33;61.09
73341;BME280;61578;52.002;5.468;2024-03-02T00:49:02;99843.91;;;11.49;61.32
73341;BME280;61578;52.002;5.468;2024-03-02T00:49:35;99843.06;;;11.48;61.43
73341;BME280;61578;52.002;5.468;2024-03-02T00:50:07;99840.41;;;11.48;61.28
73341;BME280;61578;52.002;5.468;2024-03-02T00:50:39;99838.00;;;11.45;61.33
73341;BME280;61578;52.002;5.468;2024-03-02T00:51:10;99838.22;;;11.42;61.14
73341;BME280;61578;52.002;5.468;2024-03-02T00:51:41;99838.22;;;11.42;61.60
73341;BME280;61578;52.002;5.468;2024-03-02T00:52:13;99837.38;;;11.41;61.49
73341;BME280;61578;52.002;5.468;2024-03-02T00:52:43;99843.81;;;11.39;61.89
73341;BME280;61578;52.002;5.468;2024-03-02T00:53:15;99838.63;;;11.37;61.87
73341;BME280;61578;52.002;5.468;2024-03-02T00:53:48;99839.84;;;11.33;62.08
73341;BME280;61578;52.002;5.468;2024-03-02T00:54:23;99837.91;;;11.35;62.19
73341;BME280;61578;52.002;5.468;2024-03-02T00:54:57;99836.34;;;11.33;62.57
73341;BME280;61578;52.002;5.468;2024-03-02T00:55:28;99844.72;;;11.28;62.49
73341;BME280;61578;52.002;5.468;2024-03-02T00:55:59;99842.06;;;11.28;62.74
73341;BME280;61578;52.002;5.468;2024-03-02T00:56:33;99843.16;;;11.26;62.93
73341;BME280;61578;52.002;5.468;2024-03-02T00:57:05;99844.34;;;11.22;63.09
73341;BME280;61578;52.002;5.468;2024-03-02T00:57:36;99848.81;;;11.21;63.14
73341;BME280;61578;52.002;5.468;2024-03-02T00:58:07;99846.44;;;11.18;63.57
73341;BME280;61578;52.002;5.468;2024-03-02T00:58:39;99843.06;;;11.16;63.22
73341;BME280;61578;52.002;5.468;2024-03-02T00:59:10;99844.28;;;11.12;63.45
73341;BME280;61578;52.002;5.468;2024-03-02T00:59:42;99830.06;;;11.02;63.74
73341;BME280;61578;52.002;5.468;2024-03-02T01:00:13;99848.63;;;11.13;63.41
73341;BME280;61578;52.002;5.468;2024-03-02T01:00:45;99843.81;;;11.07;63.55
73341;BME280;61578;52.002;5.468;2024-03-02T01:01:17;99849.72;;;11.11;63.86
73341;BME280;61578;52.002;5.468;2024-03-02T01:01:49;99847.31;;;11.07;64.03
73341;BME280;61578;52.002;5.468;2024-03-02T01:02:20;99850.09;;;11.06;64.02
73341;BME280;61578;52.002;5.468;2024-03-02T01:02:51;99848.28;;;11.06;64.45
73341;BME280;61578;52.002;5.468;2024-03-02T01:03:23;99848.78;;;11.00;64.35
73341;BME280;61578;52.002;5.468;2024-03-02T01:03:54;99853.00;;;11.03;64.03
73341;BME280;61578;52.002;5.468;2024-03-02T01:04:25;99844.59;;;10.98;64.24
73341;BME280;61578;52.002;5.468;2024-03-02T01:04:56;99848.66;;;11.02;64.70
73341;BME280;61578;52.002;5.468;2024-03-02T01:05:26;99853.00;;;11.03;64.12
73341;BME280;61578;52.002;5.468;2024-03-02T01:05:58;99850.94;;;11.06;64.34
73341;BME280;61578;52.002;5.468;2024-03-02T01:06:32;99813.50;;;10.78;64.58
73341;BME280;61578;52.002;5.468;2024-03-02T01:07:02;99853.25;;;11.00;64.49
73341;BME280;61578;52.002;5.468;2024-03-02T01:07:33;99853.41;;;10.98;64.70
73341;BME280;61578;52.002;5.468;2024-03-02T01:08:05;99852.56;;;10.98;64.80
73341;BME280;61578;52.002;5.468;2024-03-02T01:08:36;99852.78;;;10.95;64.83
73341;BME280;61578;52.002;5.468;2024-03-02T01:09:07;99851.94;;;10.94;64.87
73341;BME280;61578;52.002;5.468;2024-03-02T01:09:38;99802.63;;;10.69;64.92
73341;BME280;61578;52.002;5.468;2024-03-02T01:10:09;99851.09;;;10.94;64.68
73341;BME280;61578;52.002;5.468;2024-03-02T01:10:41;99835.69;;;10.88;64.63
73341;BME280;61578;52.002;5.468;2024-03-02T01:11:12;99854.72;;;10.93;64.77
73341;BME280;61578;52.002;5.468;2024-03-02T01:11:48;99852.91;;;10.93;65.23
73341;BME280;61578;52.002;5.468;2024-03-02T01:12:25;99858.94;;;10.95;65.03
73341;BME280;61578;52.002;5.468;2024-03-02T01:12:56;99862.69;;;10.93;65.16
73341;BME280;61578;52.002;5.468;2024-03-02T01:13:26;99850.03;;;10.85;65.35
73341;BME280;61578;52.002;5.468;2024-03-02T01:13:58;99865.47;;;10.91;65.31
73341;BME280;61578;52.002;5.468;2024-03-02T01:14:28;99861.84;;;10.92;65.33
73341;BME280;61578;52.002;5.468;2024-03-02T01:14:59;99858.47;;;10.90;65.55
73341;BME280;61578;52.002;5.468;2024-03-02T01:15:30;99859.56;;;10.88;65.65
73341;BME280;61578;52.002;5.468;2024-03-02T01:16:01;99855.22;;;10.87;65.61
73341;BME280;61578;52.002;5.468;2024-03-02T01:16:33;99856.06;;;10.87;65.89
73341;BME280;61578;52.002;5.468;2024-03-02T01:17:03;99847.63;;;10.82;66.25
73341;BME280;61578;52.002;5.468;2024-03-02T01:17:34;99843.41;;;10.80;66.13
73341;BME280;61578;52.002;5.468;2024-03-02T01:18:05;99849.56;;;10.80;66.32
73341;BME280;61578;52.002;5.468;2024-03-02T01:18:36;99843.66;;;10.77;66.02
73341;BME280;61578;52.002;5.468;2024-03-02T01:19:07;99848.69;;;10.80;66.32
73341;BME280;61578;52.002;5.468;2024-03-02T01:19:38;99844.50;;;10.77;67.18
73341;BME280;61578;52.002;5.468;2024-03-02T01:20:10;99845.81;;;10.72;67.25
73341;BME280;61578;52.002;5.468;2024-03-02T01:20:41;99848.38;;;10.73;67.13
73341;BME280;61578;52.002;5.468;2024-03-02T01:21:12;99848.38;;;10.73;66.89
73341;BME280;61578;52.002;5.468;2024-03-02T01:21:42;99844.75;;;10.74;66.87
73341;BME280;61578;52.002;5.468;2024-03-02T01:22:13;99850.28;;;10.71;67.13
73341;BME280;61578;52.002;5.468;2024-03-02T01:22:44;99861.88;;;10.70;67.58
73341;BME280;61578;52.002;5.468;2024-03-02T01:23:15;99853.06;;;10.69;66.86
73341;BME280;61578;52.002;5.468;2024-03-02T01:23:45;99850.69;;;10.66;67.44
73341;BME280;61578;52.002;5.468;2024-03-02T01:24:16;99856.00;;;10.66;67.53
73341;BME280;61578;52.002;5.468;2024-03-02T01:24:47;99865.66;;;10.67;67.41
73341;BME280;61578;52.002;5.468;2024-03-02T01:25:19;99858.16;;;10.61;67.19
73341;BME280;61578;52.002;5.468;2024-03-02T01:25:51;99836.47;;;10.45;67.26
73341;BME280;61578;52.002;5.468;2024-03-02T01:26:23;99865.16;;;10.62;67.41
73341;BME280;61578;52.002;5.468;2024-03-02T01:26:54;99834.88;;;10.43;68.00
73341;BME280;61578;52.002;5.468;2024-03-02T01:27:25;99862.50;;;10.51;67.68
73341;BME280;61578;52.002;5.468;2024-03-02T01:27:57;99853.56;;;10.52;67.72
73341;BME280;61578;52.002;5.468;2024-03-02T01:28:28;99844.78;;;10.41;68.25
73341;BME280;61578;52.002;5.468;2024-03-02T01:29:01;99857.69;;;10.56;67.75
73341;BME280;61578;52.002;5.468;2024-03-02T01:29:32;99866.63;;;10.55;67.72
73341;BME280;61578;52.002;5.468;2024-03-02T01:30:04;99869.03;;;10.58;67.81
73341;BME280;61578;52.002;5.468;2024-03-02T01:30:35;99871.53;;;10.60;67.97
73341;BME280;61578;52.002;5.468;2024-03-02T01:31:06;99869.16;;;10.57;68.35
73341;BME280;61578;52.002;5.468;2024-03-02T01:31:37;99864.69;;;10.57;68.32
73341;BME280;61578;52.002;5.468;2024-03-02T01:32:07;99871.53;;;10.60;68.11
73341;BME280;61578;52.002;5.468;2024-03-02T01:32:38;99865.53;;;10.58;68.03
73341;BME280;61578;52.002;5.468;2024-03-02T01:33:09;99884.34;;;10.55;68.57
73341;BME280;61578;52.002;5.468;2024-03-02T01:33:40;99867.56;;;10.54;68.68
73341;BME280;61578;52.002;5.468;2024-03-02T01:34:10;99864.19;;;10.52;68.57
73341;BME280;61578;52.002;5.468;2024-03-02T01:34:43;99866.00;;;10.52;68.57
73341;BME280;61578;52.002;5.468;2024-03-02T01:35:14;99851.44;;;10.46;68.59
73341;BME280;61578;52.002;5.468;2024-03-02T01:35:45;99865.78;;;10.55;68.46
73341;BME280;61578;52.002;5.468;2024-03-02T01:36:16;99869.38;;;10.54;68.32
73341;BME280;61578;52.002;5.468;2024-03-02T01:36:47;99853.97;;;10.48;68.02
73341;BME280;61578;52.002;5.468;2024-03-02T01:37:17;99866.00;;;10.52;68.52
73341;BME280;61578;52.002;5.468;2024-03-02T01:37:48;99864.56;;;10.48;68.49
73341;BME280;61578;52.002;5.468;2024-03-02T01:38:19;99817.78;;;10.24;68.72
73341;BME280;61578;52.002;5.468;2024-03-02T01:38:50;99858.41;;;10.47;68.53
73341;BME280;61578;52.002;5.468;2024-03-02T01:39:24;99868.66;;;10.52;68.67
73341;BME280;61578;52.002;5.468;2024-03-02T01:39:54;99858.78;;;10.54;68.72
73341;BME280;61578;52.002;5.468;2024-03-02T01:40:25;99854.53;;;10.51;68.95
73341;BME280;61578;52.002;5.468;2024-03-02T01:40:56;99857.19;;;10.51;68.82
73341;BME280;61578;52.002;5.468;2024-03-02T01:41:28;99819.47;;;10.25;69.44
73341;BME280;61578;52.002;5.468;2024-03-02T01:41:59;99847.19;;;10.44;68.96
73341;BME280;61578;52.002;5.468;2024-03-02T01:42:30;99816.44;;;10.19;69.49
73341;BME280;61578;52.002;5.468;2024-03-02T01:43:01;99854.06;;;10.46;69.28
73341;BME280;61578;52.002;5.468;2024-03-02T01:43:32;99858.53;;;10.46;69.14
73341;BME280;61578;52.002;5.468;2024-03-02T01:44:04;99867.34;;;10.46;69.56
73341;BME280;61578;52.002;5.468;2024-03-02T01:44:34;99871.94;;;10.44;69.64
73341;BME280;61578;52.002;5.468;2024-03-02T01:45:06;99869.50;;;10.41;69.72
73341;BME280;61578;52.002;5.468;2024-03-02T01:45:38;99859.38;;;10.46;69.63
73341;BME280;61578;52.002;5.468;2024-03-02T01:46:09;99867.34;;;10.46;69.36
73341;BME280;61578;52.002;5.468;2024-03-02T01:46:40;99868.44;;;10.44;69.74
73341;BME280;61578;52.002;5.468;2024-03-02T01:47:14;99869.38;;;10.43;70.06
73341;BME280;61578;52.002;5.468;2024-03-02T01:47:45;99871.31;;;10.41;69.91
73341;BME280;61578;52.002;5.468;2024-03-02T01:48:16;99836.81;;;10.29;69.96
73341;BME280;61578;52.002;5.468;2024-03-02T01:48:47;99860.81;;;10.39;69.75
73341;BME280;61578;52.002;5.468;2024-03-02T01:49:18;99855.50;;;10.39;69.92
73341;BME280;61578;52.002;5.468;2024-03-02T01:49:49;99859.16;;;10.38;70.29
73341;BME280;61578;52.002;5.468;2024-03-02T01:50:28;99862.03;;;10.35;70.12
73341;BME280;61578;52.002;5.468;2024-03-02T01:51:01;99818.59;;;10.14;70.55
73341;BME280;61578;52.002;5.468;2024-03-02T01:51:32;99863.97;;;10.33;70.32
73341;BME280;61578;52.002;5.468;2024-03-02T01:52:03;99856.84;;;10.33;70.28
73341;BME280;61578;52.002;5.468;2024-03-02T01:52:34;99864.81;;;10.33;70.37
73341;BME280;61578;52.002;5.468;2024-03-02T01:53:05;99860.47;;;10.32;70.83
73341;BME280;61578;52.002;5.468;2024-03-02T01:53:36;99862.28;;;10.32;70.71
73341;BME280;61578;52.002;5.468;2024-03-02T01:54:08;99863.13;;;10.32;70.59
73341;BME280;61578;52.002;5.468;2024-03-02T01:54:38;99857.34;;;10.27;70.67
73341;BME280;61578;52.002;5.468;2024-03-02T01:55:09;99864.19;;;10.30;70.75
73341;BME280;61578;52.002;5.468;2024-03-02T01:55:40;99861.53;;;10.30;70.77
73341;BME280;61578;52.002;5.468;2024-03-02T01:56:11;99863.47;;;10.28;71.03
73341;BME280;61578;52.002;5.468;2024-03-02T01:56:42;99864.31;;;10.28;70.54
73341;BME280;61578;52.002;5.468;2024-03-02T01:57:12;99860.81;;;10.28;70.59
73341;BME280;61578;52.002;5.468;2024-03-02T01:57:43;99812.44;;;10.02;70.46
73341;BME280;61578;52.002;5.468;2024-03-02T01:58:15;99851.44;;;10.24;70.57
73341;BME280;61578;52.002;5.468;2024-03-02T01:58:46;99862.03;;;10.24;70.57
73341;BME280;61578;52.002;5.468;2024-03-02T01:59:17;99869.63;;;10.28;70.37
73341;BME280;61578;52.002;5.468;2024-03-02T01:59:49;99858.41;;;10.25;69.97
73341;BME280;61578;52.002;5.468;2024-03-02T02:00:22;99866.84;;;10.30;69.98
73341;BME280;61578;52.002;5.468;2024-03-02T02:00:54;99857.56;;;10.24;70.36
73341;BME280;61578;52.002;5.468;2024-03-02T02:01:25;99868.91;;;10.26;70.47
73341;BME280;61578;52.002;5.468;2024-03-02T02:01:57;99869.75;;;10.27;70.55
73341;BME280;61578;52.002;5.468;2024-03-02T02:02:28;99821.47;;;10.00;70.81
73341;BME280;61578;52.002;5.468;2024-03-02T02:02:59;99859.72;;;10.19;70.54
73341;BME280;61578;52.002;5.468;2024-03-02T02:03:29;99851.66;;;10.21;70.85
73341;BME280;61578;52.002;5.468;2024-03-02T02:04:00;99857.56;;;10.24;70.73
73341;BME280;61578;52.002;5.468;2024-03-02T02:04:31;99861.06;;;10.25;70.85
73341;BME280;61578;52.002;5.468;2024-03-02T02:05:03;99859.50;;;10.22;70.52
73341;BME280;61578;52.002;5.468;2024-03-02T02:05:34;99864.69;;;10.24;70.40
73341;BME280;61578;52.002;5.468;2024-03-02T02:06:05;99825.59;;;10.04;70.49
73341;BME280;61578;52.002;5.468;2024-03-02T02:06:37;99849.97;;;10.20;70.59
73341;BME280;61578;52.002;5.468;2024-03-02T02:07:08;99872.41;;;10.27;70.75
73341;BME280;61578;52.002;5.468;2024-03-02T02:07:41;99867.56;;;10.21;70.57
73341;BME280;61578;52.002;5.468;2024-03-02T02:08:17;99866.59;;;10.22;70.53
73341;BME280;61578;52.002;5.468;2024-03-02T02:08:48;99873.38;;;10.26;70.95
73341;BME280;61578;52.002;5.468;2024-03-02T02:09:19;99876.16;;;10.24;70.85
73341;BME280;61578;52.002;5.468;2024-03-02T02:09:50;99876.16;;;10.24;70.53
73341;BME280;61578;52.002;5.468;2024-03-02T02:10:21;99879.75;;;10.23;70.82
73341;BME280;61578;52.002;5.468;2024-03-02T02:10:52;99869.59;;;10.17;70.86
73341;BME280;61578;52.002;5.468;2024-03-02T02:11:24;99866.44;;;10.12;70.74
73341;BME280;61578;52.002;5.468;2024-03-02T02:11:55;99868.16;;;10.13;70.93
73341;BME280;61578;52.002;5.468;2024-03-02T02:12:26;99862.22;;;10.10;70.35
73341;BME280;61578;52.002;5.468;2024-03-02T02:12:57;99870.94;;;10.23;71.05
73341;BME280;61578;52.002;5.468;2024-03-02T02:13:28;99868.88;;;10.15;70.59
73341;BME280;61578;52.002;5.468;2024-03-02T02:13:59;99876.38;;;10.21;70.97
73341;BME280;61578;52.002;5.468;2024-03-02T02:14:30;99871.91;;;10.22;70.62
73341;BME280;61578;52.002;5.468;2024-03-02T02:15:01;99834.00;;;9.97;70.46
73341;BME280;61578;52.002;5.468;2024-03-02T02:15:32;99867.34;;;10.24;70.54
73341;BME280;61578;52.002;5.468;2024-03-02T02:16:08;99860.81;;;10.17;70.80
73341;BME280;61578;52.002;5.468;2024-03-02T02:16:39;99870.34;;;10.19;71.22
73341;BME280;61578;52.002;5.468;2024-03-02T02:17:10;99872.25;;;10.17;70.96
73341;BME280;61578;52.002;5.468;2024-03-02T02:17:41;99871.53;;;10.15;71.19
73341;BME280;61578;52.002;5.468;2024-03-02T02:18:15;99876.59;;;10.18;71.25
73341;BME280;61578;52.002;5.468;2024-03-02T02:18:46;99877.56;;;10.17;71.06
73341;BME280;61578;52.002;5.468;2024-03-02T02:19:16;99872.38;;;10.16;70.79
73341;BME280;61578;52.002;5.468;2024-03-02T02:19:47;99876.72;;;10.17;71.48
73341;BME280;61578;52.002;5.468;2024-03-02T02:20:18;99867.78;;;10.18;71.29
73341;BME280;61578;52.002;5.468;2024-03-02T02:20:49;99873.34;;;10.15;71.28
73341;BME280;61578;52.002;5.468;2024-03-02T02:21:23;99865.84;;;10.09;71.76
73341;BME280;61578;52.002;5.468;2024-03-02T02:21:54;99857.19;;;10.07;71.59
73341;BME280;61578;52.002;5.468;2024-03-02T02:22:25;99820.97;;;9.83;72.11
73341;BME280;61578;52.002;5.468;2024-03-02T02:23:01;99870.06;;;10.11;72.21
73341;BME280;61578;52.002;5.468;2024-03-02T02:23:33;99859.34;;;10.13;72.07
73341;BME280;61578;52.002;5.468;2024-03-02T02:24:04;99862.94;;;10.12;71.77
73341;BME280;61578;52.002;5.468;2024-03-02T02:24:35;99864.88;;;10.10;72.10
73341;BME280;61578;52.002;5.468;2024-03-02T02:25:06;99857.19;;;10.07;71.96
73341;BME280;61578;52.002;5.468;2024-03-02T02:25:37;99848.72;;;10.02;72.02
73341;BME280;61578;52.002;5.468;2024-03-02T02:26:07;99859.22;;;10.03;71.95
73341;BME280;61578;52.002;5.468;2024-03-02T02:26:41;99864.88;;;10.10;71.64
73341;BME280;61578;52.002;5.468;2024-03-02T02:27:12;99818.56;;;9.80;71.62
73341;BME280;61578;52.002;5.468;2024-03-02T02:27:45;99878.38;;;10.07;72.19
73341;BME280;61578;52.002;5.468;2024-03-02T02:28:16;99872.25;;;10.06;72.17
73341;BME280;61578;52.002;5.468;2024-03-02T02:28:47;99864.28;;;10.06;72.38
73341;BME280;61578;52.002;5.468;2024-03-02T02:29:18;99855.09;;;9.99;72.30
73341;BME280;61578;52.002;5.468;2024-03-02T02:29:49;99862.47;;;10.07;72.42
73341;BME280;61578;52.002;5.468;2024-03-02T02:30:31;99867.78;;;10.07;72.39
73341;BME280;61578;52.002;5.468;2024-03-02T02:31:05;99863.44;;;10.06;72.50
73341;BME280;61578;52.002;5.468;2024-03-02T02:31:40;99855.94;;;10.00;72.68
73341;BME280;61578;52.002;5.468;2024-03-02T02:32:12;99864.75;;;10.00;72.79
73341;BME280;61578;52.002;5.468;2024-03-02T02:32:45;99853.53;;;9.96;72.45
73341;BME280;61578;52.002;5.468;2024-03-02T02:33:16;99864.38;;;9.93;72.88
73341;BME280;61578;52.002;5.468;2024-03-02T02:33:47;99863.16;;;9.97;73.23
73341;BME280;61578;52.002;5.468;2024-03-02T02:34:18;99861.34;;;9.98;73.17
73341;BME280;61578;52.002;5.468;2024-03-02T02:34:52;99855.69;;;9.91;72.99
73341;BME280;61578;52.002;5.468;2024-03-02T02:35:23;99855.69;;;9.91;72.80
73341;BME280;61578;52.002;5.468;2024-03-02T02:35:56;99861.50;;;9.96;72.99
73341;BME280;61578;52.002;5.468;2024-03-02T02:36:27;99867.50;;;9.98;73.35
73341;BME280;61578;52.002;5.468;2024-03-02T02:36:58;99873.53;;;10.01;72.93
73341;BME280;61578;52.002;5.468;2024-03-02T02:37:29;99833.97;;;9.75;72.84
73341;BME280;61578;52.002;5.468;2024-03-02T02:38:00;99878.38;;;9.95;72.65
73341;BME280;61578;52.002;5.468;2024-03-02T02:38:40;99870.53;;;9.94;72.75
73341;BME280;61578;52.002;5.468;2024-03-02T02:39:19;99874.97;;;9.93;72.80
73341;BME280;61578;52.002;5.468;2024-03-02T02:39:52;99871.38;;;9.94;73.07
73341;BME280;61578;52.002;5.468;2024-03-02T02:40:23;99872.22;;;9.95;72.97
73341;BME280;61578;52.002;5.468;2024-03-02T02:40:54;99856.53;;;9.92;73.18
73341;BME280;61578;52.002;5.468;2024-03-02T02:41:25;99864.25;;;9.95;73.05
73341;BME280;61578;52.002;5.468;2024-03-02T02:41:55;99866.06;;;9.94;73.24
73341;BME280;61578;52.002;5.468;2024-03-02T02:42:26;99867.88;;;9.94;73.12
73341;BME280;61578;52.002;5.468;2024-03-02T02:42:57;99853.25;;;9.88;73.04
73341;BME280;61578;52.002;5.468;2024-03-02T02:43:29;99871.38;;;9.94;73.47
73341;BME280;61578;52.002;5.468;2024-03-02T02:44:00;99876.78;;;9.93;73.62
73341;BME280;61578;52.002;5.468;2024-03-02T02:44:34;99880.41;;;9.92;73.60
73341;BME280;61578;52.002;5.468;2024-03-02T02:45:05;99874.38;;;9.90;74.11
73341;BME280;61578;52.002;5.468;2024-03-02T02:45:37;99877.38;;;9.85;73.82
73341;BME280;61578;52.002;5.468;2024-03-02T02:46:08;99874.72;;;9.85;73.39
73341;BME280;61578;52.002;5.468;2024-03-02T02:46:39;99883.06;;;9.92;73.35
73341;BME280;61578;52.002;5.468;2024-03-02T02:47:10;99883.78;;;9.94;73.50
73341;BME280;61578;52.002;5.468;2024-03-02T02:47:41;99874.38;;;9.90;73.43
73341;BME280;61578;52.002;5.468;2024-03-02T02:48:13;99862.91;;;9.89;73.29
73341;BME280;61578;52.002;5.468;2024-03-02T02:48:46;99863.28;;;9.85;73.55
73341;BME280;61578;52.002;5.468;2024-03-02T02:49:17;99865.81;;;9.86;73.62
73341;BME280;61578;52.002;5.468;2024-03-02T02:49:48;99797.56;;;9.55;72.19
73341;BME280;61578;52.002;5.468;2024-03-02T02:50:19;99855.81;;;9.90;72.27
73341;BME280;61578;52.002;5.468;2024-03-02T02:50:49;99867.25;;;9.90;72.23
73341;BME280;61578;52.002;5.468;2024-03-02T02:51:23;99858.56;;;9.88;72.57
73341;BME280;61578;52.002;5.468;2024-03-02T02:51:55;99869.31;;;9.87;72.66
73341;BME280;61578;52.002;5.468;2024-03-02T02:52:31;99869.19;;;9.88;72.53
73341;BME280;61578;52.002;5.468;2024-03-02T02:53:06;99883.38;;;9.87;71.86
73341;BME280;61578;52.002;5.468;2024-03-02T02:53:39;99882.56;;;9.87;71.65
73341;BME280;61578;52.002;5.468;2024-03-02T02:54:11;99877.59;;;9.82;71.79